sensor_id;sensor_type;location;lat;lon;timestamp;pressure;altitude;pressure_sealevel;temperature;humidity
70468;BME280;57934;51.532;7.684;2023-05-09T00:01:35;100600.97;;;15.23;92.78
70468;BME280;57934;51.532;7.684;2023-05-09T00:04:01;100596.69;;;15.22;92.93
70468;BME280;57934;51.532;7.684;2023-05-09T00:06:27;100602.38;;;15.25;92.80
70468;BME280;57934;51.532;7.684;2023-05-09T00:08:54;100596.09;;;15.20;92.76
70468;BME280;57934;51.532;7.684;2023-05-09T00:11:21;100594.63;;;15.24;92.77
70468;BME280;57934;51.532;7.684;2023-05-09T00:13:48;100590.19;;;15.18;92.97
70468;BME280;57934;51.532;7.684;2023-05-09T00:16:16;100591.84;;;15.12;93.08
70468;BME280;57934;51.532;7.684;2023-05-09T00:18:42;100593.69;;;15.12;93.30
70468;BME280;57934;51.532;7.684;2023-05-09T00:21:09;100585.75;;;15.05;93.46
70468;BME280;57934;51.532;7.684;2023-05-09T00:23:36;100581.09;;;15.00;93.17
70468;BME280;57934;51.532;7.684;2023-05-09T00:26:03;100577.59;;;15.07;93.29
70468;BME280;57934;51.532;7.684;2023-05-09T00:28:29;100576.19;;;15.04;93.44
70468;BME280;57934;51.532;7.684;2023-05-09T00:30:55;100576.66;;;14.94;93.79
70468;BME280;57934;51.532;7.684;2023-05-09T00:33:22;100572.22;;;14.88;94.06
70468;BME280;57934;51.532;7.684;2023-05-09T00:35:54;100566.56;;;14.78;94.20
70468;BME280;57934;51.532;7.684;2023-05-09T00:38:23;100558.03;;;14.69;94.44
70468;BME280;57934;51.532;7.684;2023-05-09T00:40:49;100550.47;;;14.66;94.72
70468;BME280;57934;51.532;7.684;2023-05-09T00:43:16;100552.31;;;14.66;94.42
70468;BME280;57934;51.532;7.684;2023-05-09T00:45:43;100549.94;;;14.58;94.79
70468;BME280;57934;51.532;7.684;2023-05-09T00:48:10;100543.41;;;14.53;95.06
70468;BME280;57934;51.532;7.684;2023-05-09T00:50:36;100544.66;;;14.44;95.60
70468;BME280;57934;51.532;7.684;2023-05-09T00:53:03;100538.78;;;14.36;95.95
70468;BME280;57934;51.532;7.684;2023-05-09T00:55:30;100536.94;;;14.36;96.01
70468;BME280;57934;51.532;7.684;2023-05-09T00:57:56;100531.81;;;14.41;95.78
70468;BME280;57934;51.532;7.684;2023-05-09T01:00:22;100533.88;;;14.39;95.67
70468;BME280;57934;51.532;7.684;2023-05-09T01:02:52;100515.47;;;14.44;95.57
70468;BME280;57934;51.532;7.684;2023-05-09T01:05:24;100512.44;;;14.41;95.68
70468;BME280;57934;51.532;7.684;2023-05-09T01:08:20;100515.31;;;14.39;95.74
70468;BME280;57934;51.532;7.684;2023-05-09T01:11:18;100513.28;;;14.35;95.78
70468;BME280;57934;51.532;7.684;2023-05-09T01:17:09;100509.47;;;14.17;96.26
70468;BME280;57934;51.532;7.684;2023-05-09T01:19:57;100504.78;;;14.19;96.22
70468;BME280;57934;51.532;7.684;2023-05-09T01:22:29;100499.88;;;14.23;96.17
70468;BME280;57934;51.532;7.684;2023-05-09T01:25:10;100498.84;;;14.24;96.02
70468;BME280;57934;51.532;7.684;2023-05-09T01:30:19;100491.91;;;14.23;95.54
70468;BME280;57934;51.532;7.684;2023-05-09T01:32:48;100490.22;;;14.28;95.33
70468;BME280;57934;51.532;7.684;2023-05-09T01:35:16;100493.50;;;14.30;94.97
70468;BME280;57934;51.532;7.684;2023-05-09T01:37:47;100479.63;;;14.28;94.96
70468;BME280;57934;51.532;7.684;2023-05-09T01:40:17;100477.38;;;14.32;94.71
70468;BME280;57934;51.532;7.684;2023-05-09T01:43:02;100477.13;;;14.40;93.92
70468;BME280;57934;51.532;7.684;2023-05-09T01:45:31;100472.47;;;14.36;93.94
70468;BME280;57934;51.532;7.684;2023-05-09T01:47:59;100475.13;;;14.36;93.83
70468;BME280;57934;51.532;7.684;2023-05-09T01:50:26;100471.66;;;14.28;94.38
70468;BME280;57934;51.532;7.684;2023-05-09T01:52:55;100463.59;;;14.10;95.08
70468;BME280;57934;51.532;7.684;2023-05-09T01:55:24;100463.03;;;14.08;95.23
70468;BME280;57934;51.532;7.684;2023-05-09T01:57:52;100456.53;;;14.04;95.21
70468;BME280;57934;51.532;7.684;2023-05-09T02:00:18;100456.94;;;14.01;95.69
70468;BME280;57934;51.532;7.684;2023-05-09T02:02:46;100454.47;;;14.06;95.31
70468;BME280;57934;51.532;7.684;2023-05-09T02:05:16;100455.50;;;14.05;95.42
70468;BME280;57934;51.532;7.684;2023-05-09T02:07:44;100450.41;;;13.97;95.70
70468;BME280;57934;51.532;7.684;2023-05-09T02:10:14;100458.16;;;14.05;95.42
70468;BME280;57934;51.532;7.684;2023-05-09T02:12:40;100462.25;;;14.01;95.47
70468;BME280;57934;51.532;7.684;2023-05-09T02:15:07;100460.78;;;14.05;95.40
70468;BME280;57934;51.532;7.684;2023-05-09T02:17:34;100462.66;;;13.98;95.60
70468;BME280;57934;51.532;7.684;2023-05-09T02:20:00;100452.25;;;13.96;95.87
70468;BME280;57934;51.532;7.684;2023-05-09T02:22:26;100458.38;;;13.97;95.97
70468;BME280;57934;51.532;7.684;2023-05-09T02:24:53;100457.97;;;13.93;95.82
70468;BME280;57934;51.532;7.684;2023-05-09T02:27:19;100461.69;;;13.85;96.02
70468;BME280;57934;51.532;7.684;2023-05-09T02:29:50;100454.34;;;13.88;96.12
70468;BME280;57934;51.532;7.684;2023-05-09T02:32:22;100446.78;;;13.91;96.06
70468;BME280;57934;51.532;7.684;2023-05-09T02:34:51;100456.34;;;13.92;95.83
70468;BME280;57934;51.532;7.684;2023-05-09T02:37:19;100454.38;;;13.81;95.92
70468;BME280;57934;51.532;7.684;2023-05-09T02:39:46;100447.66;;;13.72;96.38
70468;BME280;57934;51.532;7.684;2023-05-09T02:42:17;100445.03;;;13.65;96.94
70468;BME280;57934;51.532;7.684;2023-05-09T02:44:43;100437.72;;;13.60;96.77
70468;BME280;57934;51.532;7.684;2023-05-09T02:47:09;100437.31;;;13.57;97.25
70468;BME280;57934;51.532;7.684;2023-05-09T02:49:35;100440.34;;;13.67;96.51
70468;BME280;57934;51.532;7.684;2023-05-09T02:52:03;100429.97;;;13.66;96.41
70468;BME280;57934;51.532;7.684;2023-05-09T02:54:29;100433.84;;;13.70;96.26
70468;BME280;57934;51.532;7.684;2023-05-09T02:56:55;100434.66;;;13.64;96.38
70468;BME280;57934;51.532;7.684;2023-05-09T02:59:21;100437.94;;;13.66;96.38
70468;BME280;57934;51.532;7.684;2023-05-09T03:01:48;100445.47;;;13.62;97.00
70468;BME280;57934;51.532;7.684;2023-05-09T03:04:14;100439.34;;;13.61;96.91
70468;BME280;57934;51.532;7.684;2023-05-09T03:06:41;100434.91;;;13.55;96.79
70468;BME280;57934;51.532;7.684;2023-05-09T03:09:07;100433.69;;;13.51;97.47
70468;BME280;57934;51.532;7.684;2023-05-09T03:11:34;100432.25;;;13.55;97.27
70468;BME280;57934;51.532;7.684;2023-05-09T03:14:02;100434.25;;;13.60;97.16
70468;BME280;57934;51.532;7.684;2023-05-09T03:16:28;100430.81;;;13.59;96.91
70468;BME280;57934;51.532;7.684;2023-05-09T03:18:55;100428.78;;;13.55;97.20
70468;BME280;57934;51.532;7.684;2023-05-09T03:21:21;100431.03;;;13.51;97.26
70468;BME280;57934;51.532;7.684;2023-05-09T03:23:47;100423.50;;;13.55;97.23
70468;BME280;57934;51.532;7.684;2023-05-09T03:26:13;100415.56;;;13.48;97.38
70468;BME280;57934;51.532;7.684;2023-05-09T03:28:40;100425.75;;;13.51;97.47
70468;BME280;57934;51.532;7.684;2023-05-09T03:31:06;100423.91;;;13.52;97.45
70468;BME280;57934;51.532;7.684;2023-05-09T03:33:32;100424.50;;;13.54;97.65
70468;BME280;57934;51.532;7.684;2023-05-09T03:36:00;100416.53;;;13.54;97.59
70468;BME280;57934;51.532;7.684;2023-05-09T03:38:26;100417.16;;;13.56;97.48
70468;BME280;57934;51.532;7.684;2023-05-09T03:40:53;100418.38;;;13.60;97.51
70468;BME280;57934;51.532;7.684;2023-05-09T03:43:19;100410.78;;;13.70;96.57
70468;BME280;57934;51.532;7.684;2023-05-09T03:45:45;100408.34;;;13.69;97.08
70468;BME280;57934;51.532;7.684;2023-05-09T03:48:13;100408.13;;;13.70;97.09
70468;BME280;57934;51.532;7.684;2023-05-09T03:50:44;100408.94;;;13.71;97.07
70468;BME280;57934;51.532;7.684;2023-05-09T03:53:12;100398.50;;;13.76;96.65
70468;BME280;57934;51.532;7.684;2023-05-09T03:55:38;100390.97;;;13.79;96.80
70468;BME280;57934;51.532;7.684;2023-05-09T03:58:05;100403.16;;;13.87;96.53
70468;BME280;57934;51.532;7.684;2023-05-09T04:00:34;100397.44;;;13.90;96.38
70468;BME280;57934;51.532;7.684;2023-05-09T04:03:08;100403.53;;;13.97;96.12
70468;BME280;57934;51.532;7.684;2023-05-09T04:05:39;100392.47;;;14.00;96.11
70468;BME280;57934;51.532;7.684;2023-05-09T04:08:09;100401.38;;;14.13;95.33
70468;BME280;57934;51.532;7.684;2023-05-09T04:10:35;100400.34;;;14.14;95.24
70468;BME280;57934;51.532;7.684;2023-05-09T04:13:02;100385.84;;;14.16;95.37
70468;BME280;57934;51.532;7.684;2023-05-09T04:15:29;100385.16;;;14.27;94.96
70468;BME280;57934;51.532;7.684;2023-05-09T04:17:56;100403.91;;;14.32;94.87
70468;BME280;57934;51.532;7.684;2023-05-09T04:20:22;100393.03;;;14.41;94.18
70468;BME280;57934;51.532;7.684;2023-05-09T04:22:48;100391.81;;;14.43;94.03
70468;BME280;57934;51.532;7.684;2023-05-09T04:25:16;100394.59;;;14.55;93.60
70468;BME280;57934;51.532;7.684;2023-05-09T04:27:43;100391.13;;;14.54;93.27
70468;BME280;57934;51.532;7.684;2023-05-09T04:30:10;100391.94;;;14.55;93.24
70468;BME280;57934;51.532;7.684;2023-05-09T04:32:37;100396.00;;;14.58;93.02
70468;BME280;57934;51.532;7.684;2023-05-09T04:35:04;100397.09;;;14.50;93.76
70468;BME280;57934;51.532;7.684;2023-05-09T04:37:37;100393.34;;;14.58;93.91
70468;BME280;57934;51.532;7.684;2023-05-09T04:40:03;100394.31;;;14.63;93.83
70468;BME280;57934;51.532;7.684;2023-05-09T04:42:38;100380.78;;;14.71;93.95
70468;BME280;57934;51.532;7.684;2023-05-09T04:45:04;100390.06;;;14.80;93.61
70468;BME280;57934;51.532;7.684;2023-05-09T04:47:31;100386.19;;;14.83;93.18
70468;BME280;57934;51.532;7.684;2023-05-09T04:49:57;100383.47;;;14.90;92.60
70468;BME280;57934;51.532;7.684;2023-05-09T04:52:23;100392.69;;;15.06;92.63
70468;BME280;57934;51.532;7.684;2023-05-09T04:54:49;100381.19;;;15.12;91.85
70468;BME280;57934;51.532;7.684;2023-05-09T04:57:18;100380.75;;;15.33;91.54
70468;BME280;57934;51.532;7.684;2023-05-09T04:59:50;100380.03;;;15.44;90.82
70468;BME280;57934;51.532;7.684;2023-05-09T05:02:18;100368.13;;;15.47;89.95
70468;BME280;57934;51.532;7.684;2023-05-09T05:04:45;100372.03;;;15.63;89.72
70468;BME280;57934;51.532;7.684;2023-05-09T05:07:12;100366.00;;;15.86;88.87
70468;BME280;57934;51.532;7.684;2023-05-09T05:09:38;100370.78;;;15.95;88.78
70468;BME280;57934;51.532;7.684;2023-05-09T05:12:04;100366.09;;;16.09;88.36
70468;BME280;57934;51.532;7.684;2023-05-09T05:14:33;100372.66;;;16.07;87.87
70468;BME280;57934;51.532;7.684;2023-05-09T05:17:00;100367.97;;;16.20;87.96
70468;BME280;57934;51.532;7.684;2023-05-09T05:19:26;100364.03;;;16.23;87.77
70468;BME280;57934;51.532;7.684;2023-05-09T05:21:53;100359.06;;;16.15;86.84
70468;BME280;57934;51.532;7.684;2023-05-09T05:24:20;100347.06;;;16.36;87.35
70468;BME280;57934;51.532;7.684;2023-05-09T05:26:46;100347.16;;;16.41;86.66
70468;BME280;57934;51.532;7.684;2023-05-09T05:29:13;100341.03;;;16.40;86.15
70468;BME280;57934;51.532;7.684;2023-05-09T05:31:39;100350.28;;;16.50;86.41
70468;BME280;57934;51.532;7.684;2023-05-09T05:34:05;100343.59;;;16.59;86.13
70468;BME280;57934;51.532;7.684;2023-05-09T05:36:32;100340.59;;;16.43;86.29
70468;BME280;57934;51.532;7.684;2023-05-09T05:38:58;100339.88;;;16.60;86.28
70468;BME280;57934;51.532;7.684;2023-05-09T05:41:25;100339.53;;;16.56;85.86
70468;BME280;57934;51.532;7.684;2023-05-09T05:43:52;100338.72;;;16.56;85.84
70468;BME280;57934;51.532;7.684;2023-05-09T05:46:19;100333.53;;;16.61;85.55
70468;BME280;57934;51.532;7.684;2023-05-09T05:48:45;100341.06;;;16.64;85.62
70468;BME280;57934;51.532;7.684;2023-05-09T05:51:11;100333.06;;;16.52;86.37
70468;BME280;57934;51.532;7.684;2023-05-09T05:53:39;100338.03;;;16.49;86.81
70468;BME280;57934;51.532;7.684;2023-05-09T05:56:06;100334.91;;;16.52;87.03
70468;BME280;57934;51.532;7.684;2023-05-09T05:58:32;100330.63;;;16.51;87.30
70468;BME280;57934;51.532;7.684;2023-05-09T06:00:58;100326.00;;;16.34;87.75
70468;BME280;57934;51.532;7.684;2023-05-09T06:03:24;100319.28;;;16.43;87.95
70468;BME280;57934;51.532;7.684;2023-05-09T06:06:00;100322.50;;;16.45;88.18
70468;BME280;57934;51.532;7.684;2023-05-09T06:08:26;100323.00;;;16.54;87.60
70468;BME280;57934;51.532;7.684;2023-05-09T06:10:52;100327.31;;;16.79;86.49
70468;BME280;57934;51.532;7.684;2023-05-09T06:13:18;100332.38;;;16.80;86.28
70468;BME280;57934;51.532;7.684;2023-05-09T06:15:50;100325.09;;;16.87;86.01
70468;BME280;57934;51.532;7.684;2023-05-09T06:18:16;100323.56;;;17.03;85.84
70468;BME280;57934;51.532;7.684;2023-05-09T06:20:42;100318.00;;;17.05;85.67
70468;BME280;57934;51.532;7.684;2023-05-09T06:23:08;100316.94;;;17.17;85.05
70468;BME280;57934;51.532;7.684;2023-05-09T06:25:34;100318.66;;;17.24;84.05
70468;BME280;57934;51.532;7.684;2023-05-09T06:28:00;100312.50;;;17.23;84.42
70468;BME280;57934;51.532;7.684;2023-05-09T06:30:26;100304.94;;;17.32;84.08
70468;BME280;57934;51.532;7.684;2023-05-09T06:32:53;100305.38;;;17.40;84.15
70468;BME280;57934;51.532;7.684;2023-05-09T06:35:19;100309.22;;;17.33;84.04
70468;BME280;57934;51.532;7.684;2023-05-09T06:37:45;100306.13;;;17.24;84.15
70468;BME280;57934;51.532;7.684;2023-05-09T06:40:11;100299.94;;;17.35;84.37
70468;BME280;57934;51.532;7.684;2023-05-09T06:42:37;100298.91;;;17.36;84.29
70468;BME280;57934;51.532;7.684;2023-05-09T06:45:04;100293.91;;;17.40;83.92
70468;BME280;57934;51.532;7.684;2023-05-09T06:47:30;100298.09;;;17.36;83.94
70468;BME280;57934;51.532;7.684;2023-05-09T06:49:56;100291.84;;;17.30;83.72
70468;BME280;57934;51.532;7.684;2023-05-09T06:52:22;100288.16;;;17.31;83.89
70468;BME280;57934;51.532;7.684;2023-05-09T06:54:48;100279.44;;;17.36;83.73
70468;BME280;57934;51.532;7.684;2023-05-09T06:57:15;100282.88;;;17.65;83.46
70468;BME280;57934;51.532;7.684;2023-05-09T06:59:41;100276.97;;;17.92;82.30
70468;BME280;57934;51.532;7.684;2023-05-09T07:02:07;100281.91;;;18.00;82.11
70468;BME280;57934;51.532;7.684;2023-05-09T07:04:33;100266.53;;;18.07;82.16
70468;BME280;57934;51.532;7.684;2023-05-09T07:06:59;100267.19;;;18.14;82.13
70468;BME280;57934;51.532;7.684;2023-05-09T07:09:25;100261.44;;;18.22;81.99
70468;BME280;57934;51.532;7.684;2023-05-09T07:11:54;100264.50;;;18.31;81.74
70468;BME280;57934;51.532;7.684;2023-05-09T07:14:20;100264.19;;;18.27;81.98
70468;BME280;57934;51.532;7.684;2023-05-09T07:16:46;100263.72;;;18.13;81.89
70468;BME280;57934;51.532;7.684;2023-05-09T07:19:12;100259.19;;;18.14;82.13
70468;BME280;57934;51.532;7.684;2023-05-09T07:21:38;100255.22;;;18.33;81.82
70468;BME280;57934;51.532;7.684;2023-05-09T07:24:04;100245.53;;;18.49;80.76
70468;BME280;57934;51.532;7.684;2023-05-09T07:26:31;100249.78;;;18.67;80.35
70468;BME280;57934;51.532;7.684;2023-05-09T07:28:57;100248.66;;;18.63;80.15
70468;BME280;57934;51.532;7.684;2023-05-09T07:31:23;100252.28;;;18.74;79.37
70468;BME280;57934;51.532;7.684;2023-05-09T07:33:49;100247.47;;;18.93;78.09
70468;BME280;57934;51.532;7.684;2023-05-09T07:36:15;100242.47;;;19.01;77.74
70468;BME280;57934;51.532;7.684;2023-05-09T07:38:41;100241.72;;;19.28;78.30
70468;BME280;57934;51.532;7.684;2023-05-09T07:41:08;100236.41;;;19.33;76.64
70468;BME280;57934;51.532;7.684;2023-05-09T07:43:34;100230.94;;;20.14;74.94
70468;BME280;57934;51.532;7.684;2023-05-09T07:46:00;100222.38;;;20.12;73.36
70468;BME280;57934;51.532;7.684;2023-05-09T07:48:27;100216.94;;;20.49;72.43
70468;BME280;57934;51.532;7.684;2023-05-09T07:50:53;100213.13;;;20.35;72.47
70468;BME280;57934;51.532;7.684;2023-05-09T07:53:19;100210.09;;;20.16;72.40
70468;BME280;57934;51.532;7.684;2023-05-09T07:55:45;100205.19;;;20.03;73.27
70468;BME280;57934;51.532;7.684;2023-05-09T07:58:13;100207.13;;;19.75;73.81
70468;BME280;57934;51.532;7.684;2023-05-09T08:00:39;100204.72;;;19.20;75.80
70468;BME280;57934;51.532;7.684;2023-05-09T08:03:05;100205.75;;;19.14;76.90
70468;BME280;57934;51.532;7.684;2023-05-09T08:05:31;100199.69;;;18.74;78.58
70468;BME280;57934;51.532;7.684;2023-05-09T08:07:58;100202.00;;;18.71;78.59
70468;BME280;57934;51.532;7.684;2023-05-09T08:10:24;100192.44;;;18.53;78.44
70468;BME280;57934;51.532;7.684;2023-05-09T08:12:51;100187.44;;;18.18;80.34
70468;BME280;57934;51.532;7.684;2023-05-09T08:15:17;100189.06;;;18.19;80.50
70468;BME280;57934;51.532;7.684;2023-05-09T08:17:43;100184.88;;;18.45;80.02
70468;BME280;57934;51.532;7.684;2023-05-09T08:20:10;100180.47;;;18.55;79.65
70468;BME280;57934;51.532;7.684;2023-05-09T08:22:38;100180.94;;;18.52;79.88
70468;BME280;57934;51.532;7.684;2023-05-09T08:25:05;100175.38;;;18.76;79.11
70468;BME280;57934;51.532;7.684;2023-05-09T08:27:32;100174.19;;;18.67;77.52
70468;BME280;57934;51.532;7.684;2023-05-09T08:29:58;100168.50;;;19.07;77.60
70468;BME280;57934;51.532;7.684;2023-05-09T08:32:24;100164.31;;;19.16;75.94
70468;BME280;57934;51.532;7.684;2023-05-09T08:34:50;100170.53;;;19.22;75.48
70468;BME280;57934;51.532;7.684;2023-05-09T08:37:17;100166.88;;;19.33;75.40
70468;BME280;57934;51.532;7.684;2023-05-09T08:39:43;100171.41;;;19.33;75.45
70468;BME280;57934;51.532;7.684;2023-05-09T08:42:09;100167.66;;;19.28;75.21
70468;BME280;57934;51.532;7.684;2023-05-09T08:44:35;100158.44;;;19.46;75.54
70468;BME280;57934;51.532;7.684;2023-05-09T08:47:03;100156.84;;;19.83;74.11
70468;BME280;57934;51.532;7.684;2023-05-09T08:49:29;100155.13;;;20.03;72.72
70468;BME280;57934;51.532;7.684;2023-05-09T08:51:56;100153.72;;;19.91;72.23
70468;BME280;57934;51.532;7.684;2023-05-09T08:54:23;100152.25;;;19.73;72.21
70468;BME280;57934;51.532;7.684;2023-05-09T08:56:50;100149.53;;;19.36;74.22
70468;BME280;57934;51.532;7.684;2023-05-09T08:59:17;100150.97;;;19.48;74.22
70468;BME280;57934;51.532;7.684;2023-05-09T09:01:44;100152.78;;;19.43;74.49
70468;BME280;57934;51.532;7.684;2023-05-09T09:04:10;100145.91;;;19.52;75.08
70468;BME280;57934;51.532;7.684;2023-05-09T09:06:38;100143.41;;;19.72;74.77
70468;BME280;57934;51.532;7.684;2023-05-09T09:09:06;100144.78;;;19.48;75.25
70468;BME280;57934;51.532;7.684;2023-05-09T09:11:36;100140.50;;;19.47;75.52
70468;BME280;57934;51.532;7.684;2023-05-09T09:14:15;100140.72;;;19.40;75.21
70468;BME280;57934;51.532;7.684;2023-05-09T09:16:46;100140.00;;;18.91;76.48
70468;BME280;57934;51.532;7.684;2023-05-09T09:19:16;100145.34;;;19.18;75.96
70468;BME280;57934;51.532;7.684;2023-05-09T09:21:45;100136.16;;;19.36;75.73
70468;BME280;57934;51.532;7.684;2023-05-09T09:24:19;100132.41;;;19.37;74.91
70468;BME280;57934;51.532;7.684;2023-05-09T09:26:47;100128.69;;;19.38;74.29
70468;BME280;57934;51.532;7.684;2023-05-09T09:29:15;100125.88;;;19.22;75.20
70468;BME280;57934;51.532;7.684;2023-05-09T09:31:46;100124.75;;;19.13;76.00
70468;BME280;57934;51.532;7.684;2023-05-09T09:34:19;100126.66;;;19.18;75.22
70468;BME280;57934;51.532;7.684;2023-05-09T09:36:45;100124.06;;;19.28;75.92
70468;BME280;57934;51.532;7.684;2023-05-09T09:39:13;100112.50;;;19.22;75.61
70468;BME280;57934;51.532;7.684;2023-05-09T09:41:39;100108.41;;;19.42;74.98
70468;BME280;57934;51.532;7.684;2023-05-09T09:44:14;100107.44;;;19.58;74.77
70468;BME280;57934;51.532;7.684;2023-05-09T09:49:09;100098.91;;;20.03;73.40
70468;BME280;57934;51.532;7.684;2023-05-09T09:51:35;100091.09;;;19.97;72.16
70468;BME280;57934;51.532;7.684;2023-05-09T09:54:02;100090.94;;;20.19;72.00
70468;BME280;57934;51.532;7.684;2023-05-09T09:56:41;100088.69;;;20.58;71.26
70468;BME280;57934;51.532;7.684;2023-05-09T09:59:12;100083.59;;;20.57;70.63
70468;BME280;57934;51.532;7.684;2023-05-09T10:02:04;100086.09;;;20.99;68.61
70468;BME280;57934;51.532;7.684;2023-05-09T10:04:36;100082.34;;;21.36;66.83
70468;BME280;57934;51.532;7.684;2023-05-09T10:07:04;100078.84;;;21.51;65.98
70468;BME280;57934;51.532;7.684;2023-05-09T10:09:32;100073.47;;;21.30;64.98
70468;BME280;57934;51.532;7.684;2023-05-09T10:12:06;100072.13;;;20.82;66.90
70468;BME280;57934;51.532;7.684;2023-05-09T10:14:34;100075.41;;;20.21;68.04
70468;BME280;57934;51.532;7.684;2023-05-09T10:17:03;100069.13;;;19.90;70.87
70468;BME280;57934;51.532;7.684;2023-05-09T10:19:30;100069.97;;;20.68;68.70
70468;BME280;57934;51.532;7.684;2023-05-09T10:22:02;100060.81;;;21.77;64.97
70468;BME280;57934;51.532;7.684;2023-05-09T10:24:34;100057.59;;;22.84;61.58
70468;BME280;57934;51.532;7.684;2023-05-09T10:27:09;100058.03;;;23.36;58.18
70468;BME280;57934;51.532;7.684;2023-05-09T10:29:49;100050.81;;;23.55;59.13
70468;BME280;57934;51.532;7.684;2023-05-09T10:34:48;100037.34;;;23.31;59.79
70468;BME280;57934;51.532;7.684;2023-05-09T10:37:16;100036.25;;;23.03;58.98
70468;BME280;57934;51.532;7.684;2023-05-09T10:39:43;100026.66;;;22.52;58.99
70468;BME280;57934;51.532;7.684;2023-05-09T10:42:09;100030.69;;;21.90;60.39
70468;BME280;57934;51.532;7.684;2023-05-09T10:44:36;100031.09;;;21.22;62.38
70468;BME280;57934;51.532;7.684;2023-05-09T10:47:02;100025.50;;;20.83;64.31
70468;BME280;57934;51.532;7.684;2023-05-09T10:49:29;100020.66;;;20.64;65.43
70468;BME280;57934;51.532;7.684;2023-05-09T10:51:55;100013.13;;;21.02;65.61
70468;BME280;57934;51.532;7.684;2023-05-09T10:54:29;100016.34;;;21.50;62.98
70468;BME280;57934;51.532;7.684;2023-05-09T10:56:59;100005.09;;;22.13;62.49
70468;BME280;57934;51.532;7.684;2023-05-09T10:59:37;100003.97;;;22.63;60.78
70468;BME280;57934;51.532;7.684;2023-05-09T11:02:03;100006.16;;;22.61;59.47
70468;BME280;57934;51.532;7.684;2023-05-09T11:04:30;99996.88;;;22.78;60.00
70468;BME280;57934;51.532;7.684;2023-05-09T11:06:59;99993.56;;;22.07;60.48
70468;BME280;57934;51.532;7.684;2023-05-09T11:09:37;99993.84;;;22.01;61.42
70468;BME280;57934;51.532;7.684;2023-05-09T11:17:05;99978.25;;;22.57;60.98
70468;BME280;57934;51.532;7.684;2023-05-09T11:22:11;99973.41;;;22.10;62.49
70468;BME280;57934;51.532;7.684;2023-05-09T11:24:39;99971.44;;;22.31;62.19
70468;BME280;57934;51.532;7.684;2023-05-09T11:29:52;99956.38;;;22.69;59.81
70468;BME280;57934;51.532;7.684;2023-05-09T11:32:20;99956.75;;;22.86;58.85
70468;BME280;57934;51.532;7.684;2023-05-09T11:34:48;99944.44;;;23.39;58.08
70468;BME280;57934;51.532;7.684;2023-05-09T11:37:17;99939.38;;;23.08;58.45
70468;BME280;57934;51.532;7.684;2023-05-09T11:40:01;99940.47;;;23.31;58.33
70468;BME280;57934;51.532;7.684;2023-05-09T11:42:30;99935.13;;;23.74;57.11
70468;BME280;57934;51.532;7.684;2023-05-09T11:44:57;99929.91;;;24.01;56.09
70468;BME280;57934;51.532;7.684;2023-05-09T11:47:24;99929.72;;;23.98;57.04
70468;BME280;57934;51.532;7.684;2023-05-09T11:49:51;99923.44;;;24.40;55.64
70468;BME280;57934;51.532;7.684;2023-05-09T11:52:21;99924.38;;;24.63;54.87
70468;BME280;57934;51.532;7.684;2023-05-09T11:54:47;99917.78;;;24.56;56.08
70468;BME280;57934;51.532;7.684;2023-05-09T11:57:15;99908.09;;;24.55;55.25
70468;BME280;57934;51.532;7.684;2023-05-09T11:59:44;99902.69;;;25.01;54.70
70468;BME280;57934;51.532;7.684;2023-05-09T12:02:11;99905.22;;;25.53;53.03
70468;BME280;57934;51.532;7.684;2023-05-09T12:04:37;99898.75;;;24.80;53.96
70468;BME280;57934;51.532;7.684;2023-05-09T12:07:04;99901.03;;;24.59;53.25
70468;BME280;57934;51.532;7.684;2023-05-09T12:09:34;99895.25;;;23.95;54.60
70468;BME280;57934;51.532;7.684;2023-05-09T12:12:10;99883.56;;;23.62;55.48
70468;BME280;57934;51.532;7.684;2023-05-09T12:14:37;99886.78;;;23.21;55.83
70468;BME280;57934;51.532;7.684;2023-05-09T12:17:05;99880.09;;;23.37;56.97
70468;BME280;57934;51.532;7.684;2023-05-09T12:19:31;99878.59;;;23.31;56.76
70468;BME280;57934;51.532;7.684;2023-05-09T12:21:59;99873.09;;;23.17;57.67
70468;BME280;57934;51.532;7.684;2023-05-09T12:24:26;99876.31;;;22.90;57.75
70468;BME280;57934;51.532;7.684;2023-05-09T12:26:55;99875.38;;;23.48;57.58
70468;BME280;57934;51.532;7.684;2023-05-09T12:29:23;99862.97;;;23.52;56.13
70468;BME280;57934;51.532;7.684;2023-05-09T12:31:51;99865.50;;;23.43;56.06
70468;BME280;57934;51.532;7.684;2023-05-09T12:34:18;99861.19;;;23.85;55.11
70468;BME280;57934;51.532;7.684;2023-05-09T12:36:45;99855.47;;;23.73;56.26
70468;BME280;57934;51.532;7.684;2023-05-09T12:39:16;99865.72;;;23.66;56.81
70468;BME280;57934;51.532;7.684;2023-05-09T12:41:50;99858.63;;;23.94;55.62
70468;BME280;57934;51.532;7.684;2023-05-09T12:44:24;99848.91;;;23.55;56.09
70468;BME280;57934;51.532;7.684;2023-05-09T12:46:58;99852.50;;;22.49;59.45
70468;BME280;57934;51.532;7.684;2023-05-09T12:49:25;99850.31;;;21.83;61.66
70468;BME280;57934;51.532;7.684;2023-05-09T12:51:53;99837.84;;;21.58;62.50
70468;BME280;57934;51.532;7.684;2023-05-09T12:54:24;99841.31;;;21.63;63.54
70468;BME280;57934;51.532;7.684;2023-05-09T12:56:51;99837.31;;;21.61;62.50
70468;BME280;57934;51.532;7.684;2023-05-09T12:59:22;99847.88;;;21.37;62.73
70468;BME280;57934;51.532;7.684;2023-05-09T13:01:57;99847.09;;;21.36;63.19
70468;BME280;57934;51.532;7.684;2023-05-09T13:04:24;99828.66;;;21.69;62.21
70468;BME280;57934;51.532;7.684;2023-05-09T13:06:53;99831.63;;;22.07;61.55
70468;BME280;57934;51.532;7.684;2023-05-09T13:09:21;99827.13;;;21.97;62.35
70468;BME280;57934;51.532;7.684;2023-05-09T13:11:48;99816.59;;;22.06;63.20
70468;BME280;57934;51.532;7.684;2023-05-09T13:14:16;99824.34;;;22.07;62.62
70468;BME280;57934;51.532;7.684;2023-05-09T13:16:43;99812.41;;;21.89;63.69
70468;BME280;57934;51.532;7.684;2023-05-09T13:19:12;99811.53;;;21.99;62.54